Time;durP1;ratioP1;P1;durP2;ratioP2;P2;SDS_P1;SDS_P2;PMS_P1;PMS_P2;Temp;Humidity;BMP_temperature;BMP_pressure;BME280_temperature;BME280_humidity;BME280_pressure;Samples;Min_cycle;Max_cycle;Signal;HPM_P1;HPM_P2
2022/06/11 00:01:15;;;;;;;5.68;3.22;;;;;;;23.01;47.27;101822.59;4998313;28;20410;-53
2022/06/11 00:03:50;;;;;;;5.83;3.43;;;;;;;23.00;47.87;101820.81;4998760;28;20874;-53
2022/06/11 00:06:20;;;;;;;4.40;3.20;;;;;;;23.00;47.34;101815.56;4998848;28;20381;-55
2022/06/11 00:08:47;;;;;;;4.18;3.20;;;;;;;23.00;47.72;101815.56;4998767;28;20405;-52
2022/06/11 00:11:14;;;;;;;5.38;3.38;;;;;;;23.01;47.83;101814.69;5014950;28;20405;-53
2022/06/11 00:13:42;;;;;;;4.70;3.50;;;;;;;23.02;47.59;101819.09;4998270;28;20427;-53
2022/06/11 00:16:09;;;;;;;5.20;3.55;;;;;;;23.02;47.64;101813.84;4998409;28;20377;-53
2022/06/11 00:18:42;;;;;;;5.30;3.38;;;;;;;23.00;47.72;101815.56;5014631;28;20408;-50
2022/06/11 00:21:13;;;;;;;5.05;3.05;;;;;;;23.02;47.72;101819.09;4998381;28;20385;-53
2022/06/11 00:23:40;;;;;;;4.20;3.30;;;;;;;22.96;47.63;101803.22;4997693;28;20394;-51
2022/06/11 00:26:10;;;;;;;4.32;3.00;;;;;;;23.01;47.64;101812.06;4997395;28;20407;-53
2022/06/11 00:28:37;;;;;;;4.38;3.20;;;;;;;23.01;47.21;101812.06;4996736;28;20373;-54
2022/06/11 00:31:07;;;;;;;5.43;3.17;;;;;;;23.00;47.50;101810.31;4997291;28;20420;-51
2022/06/11 00:33:36;;;;;;;5.32;3.50;;;;;;;23.00;47.24;101804.16;4997254;28;20389;-50
2022/06/11 00:36:08;;;;;;;4.95;3.20;;;;;;;23.01;47.97;101811.19;4997710;28;20381;-53
2022/06/11 00:38:39;;;;;;;4.47;3.20;;;;;;;23.01;47.76;101812.06;4997904;28;20439;-52
2022/06/11 00:41:07;;;;;;;5.65;3.25;;;;;;;23.01;47.90;101805.91;4997227;28;20708;-51
2022/06/11 00:43:39;;;;;;;4.97;3.50;;;;;;;23.02;47.56;101802.44;4997866;28;20739;-52
2022/06/11 00:46:42;;;;;;;4.88;3.30;;;;;;;23.01;47.54;101800.66;4997556;28;20804;-52
2022/06/11 00:49:49;;;;;;;5.10;3.33;;;;;;;23.01;47.41;101800.66;5013250;28;20464;-53
2022/06/11 00:52:30;;;;;;;5.20;3.30;;;;;;;23.01;47.23;101796.31;5006032;28;20900;-51
2022/06/11 00:55:06;;;;;;;4.78;3.40;;;;;;;23.01;47.63;101791.06;4997234;28;20381;-50
2022/06/11 00:57:44;;;;;;;4.28;3.28;;;;;;;23.01;47.46;101783.19;5013423;28;20421;-55
2022/06/11 01:00:41;;;;;;;4.10;3.30;;;;;;;23.01;47.47;101796.31;4997634;28;20919;-48
2022/06/11 01:03:09;;;;;;;3.90;3.00;;;;;;;23.02;47.75;101794.56;4997845;28;20898;-50
2022/06/11 01:05:42;;;;;;;5.65;3.40;;;;;;;23.02;47.75;101798.06;4997717;28;20795;-55
2022/06/11 01:08:33;;;;;;;3.72;3.05;;;;;;;23.02;47.56;101787.56;5013822;28;20718;-55
2022/06/11 01:11:22;;;;;;;4.45;3.13;;;;;;;23.00;47.41;101789.28;5013237;28;20693;-59
2022/06/11 01:14:23;;;;;;;3.78;3.00;;;;;;;23.02;47.80;101787.56;4997068;28;20417;-51
2022/06/11 01:17:08;;;;;;;4.32;3.13;;;;;;;23.02;47.57;101797.19;4996663;28;20901;-53
2022/06/11 01:20:10;;;;;;;4.60;3.40;;;;;;;22.97;47.97;101788.34;5013350;28;20467;-53
2022/06/11 01:23:03;;;;;;;5.15;3.15;;;;;;;23.02;47.90;101798.06;4996631;28;20377;-55
2022/06/11 01:25:32;;;;;;;4.22;3.20;;;;;;;23.03;47.32;101799.84;5012766;28;20506;-50
2022/06/11 01:28:21;;;;;;;4.25;3.08;;;;;;;23.04;48.07;101796.34;5031121;28;20377;-51
2022/06/11 01:31:02;;;;;;;4.88;3.25;;;;;;;23.01;47.89;101785.81;5013183;28;20397;-56
2022/06/11 01:33:56;;;;;;;5.07;3.20;;;;;;;23.03;47.88;101788.44;5013514;28;20480;-52
2022/06/11 01:36:31;;;;;;;4.18;3.30;;;;;;;23.02;47.43;101782.31;5030796;28;20889;-54
2022/06/11 01:39:18;;;;;;;5.70;3.67;;;;;;;23.02;48.00;101777.06;4997189;28;20600;-52
2022/06/11 01:41:47;;;;;;;4.93;3.40;;;;;;;23.03;47.51;101778.81;4999666;28;20389;-53
2022/06/11 01:44:34;;;;;;;4.93;3.40;;;;;;;23.02;47.95;101771.81;5016986;28;20733;-55
2022/06/11 01:47:03;;;;;;;4.82;3.13;;;;;;;23.00;47.53;101768.28;5016886;28;20417;-55
2022/06/11 01:49:29;;;;;;;4.30;3.20;;;;;;;23.01;48.16;101759.53;5000492;28;20385;-55
2022/06/11 01:52:10;;;;;;;4.05;3.10;;;;;;;23.01;48.15;101763.88;5016804;28;20444;-56
2022/06/11 01:55:04;;;;;;;5.07;3.58;;;;;;;23.02;47.78;101763.94;5017102;28;20413;-56
2022/06/11 01:57:39;;;;;;;3.73;3.10;;;;;;;23.03;48.01;101762.16;5016988;28;20408;-55
2022/06/11 02:00:07;;;;;;;3.95;3.30;;;;;;;23.03;47.94;101757.81;5034169;28;20722;-57
2022/06/11 02:03:09;;;;;;;4.95;3.40;;;;;;;23.04;48.10;101759.56;5016560;28;20409;-52
2022/06/11 02:05:39;;;;;;;4.20;3.40;;;;;;;23.04;47.90;101754.31;5011482;28;20539;-55
2022/06/11 02:08:29;;;;;;;4.30;3.20;;;;;;;23.03;47.52;101747.31;5016277;28;20852;-55
2022/06/11 02:11:30;;;;;;;5.53;3.40;;;;;;;22.99;48.03;101745.50;5016322;28;20405;-53
2022/06/11 02:14:44;;;;;;;4.07;2.97;;;;;;;23.03;47.45;101742.06;5003262;28;20382;-55
2022/06/11 02:17:25;;;;;;;3.70;2.85;;;;;;;23.01;47.40;101742.88;5015978;28;20377;-55
2022/06/11 02:20:17;;;;;;;4.38;3.00;;;;;;;23.02;47.60;101745.53;5000031;28;20472;-56
2022/06/11 02:22:49;;;;;;;4.15;2.90;;;;;;;23.01;47.84;101738.50;4988417;28;20385;-54
2022/06/11 02:25:27;;;;;;;4.07;2.97;;;;;;;23.02;47.76;101745.53;4999339;28;20377;-60
2022/06/11 02:28:01;;;;;;;4.35;3.08;;;;;;;23.02;47.65;101750.78;4999633;28;20389;-48
2022/06/11 02:30:30;;;;;;;3.92;2.92;;;;;;;23.01;47.78;101738.50;4999709;28;20401;-52
2022/06/11 02:32:58;;;;;;;3.88;2.95;;;;;;;23.03;47.81;101746.41;4999297;28;20377;-53
2022/06/11 02:35:40;;;;;;;3.90;3.03;;;;;;;23.01;47.98;101738.50;4999923;28;20424;-53
2022/06/11 02:38:11;;;;;;;3.78;3.00;;;;;;;23.03;47.57;101742.06;5000112;28;20774;-53
2022/06/11 02:40:45;;;;;;;3.97;3.17;;;;;;;23.02;48.15;101740.28;4999631;28;20377;-56
2022/06/11 02:43:11;;;;;;;3.67;2.85;;;;;;;23.03;47.63;101744.69;4999518;28;20894;-56
2022/06/11 02:45:40;;;;;;;4.07;3.10;;;;;;;23.03;47.70;101747.31;4999721;28;20378;-52
2022/06/11 02:48:08;;;;;;;4.28;3.15;;;;;;;23.03;47.93;101741.16;4999777;28;20846;-52
2022/06/11 02:50:37;;;;;;;5.55;3.10;;;;;;;23.02;47.87;101740.28;4999913;28;20800;-56
2022/06/11 02:53:09;;;;;;;3.53;2.67;;;;;;;23.04;47.44;101748.16;4998787;28;20389;-53
2022/06/11 02:55:42;;;;;;;4.45;2.92;;;;;;;23.03;47.93;101747.31;4999469;28;20404;-55
2022/06/11 02:58:09;;;;;;;4.00;2.80;;;;;;;23.02;47.94;101744.63;4998759;28;20374;-55
2022/06/11 03:00:41;;;;;;;3.85;2.80;;;;;;;23.01;47.57;101743.78;4998772;28;20389;-56
2022/06/11 03:03:08;;;;;;;4.47;3.00;;;;;;;22.98;48.02;101748.97;4999087;28;20416;-54
2022/06/11 03:05:37;;;;;;;4.35;3.10;;;;;;;23.02;47.88;101750.78;4999143;28;20785;-56
2022/06/11 03:08:10;;;;;;;3.45;2.80;;;;;;;23.03;48.23;101747.31;4999224;28;20473;-51
2022/06/11 03:10:38;;;;;;;4.18;2.95;;;;;;;23.02;47.92;101750.78;4999054;28;20398;-50
2022/06/11 03:13:08;;;;;;;3.60;2.70;;;;;;;23.03;47.75;101747.31;4999448;28;20862;-54
2022/06/11 03:15:37;;;;;;;3.92;3.03;;;;;;;23.03;48.12;101756.91;4999084;28;20405;-55
2022/06/11 03:18:08;;;;;;;4.47;2.88;;;;;;;23.04;48.35;101754.31;4998970;28;20901;-54
2022/06/11 03:20:38;;;;;;;4.13;2.80;;;;;;;23.03;48.04;101746.41;4999042;28;20455;-53
2022/06/11 03:23:08;;;;;;;4.43;2.65;;;;;;;23.03;47.69;101747.31;4998584;28;20409;-53
2022/06/11 03:25:37;;;;;;;3.75;2.75;;;;;;;23.04;48.14;101754.31;4998678;28;20393;-56
2022/06/11 03:28:10;;;;;;;3.72;2.90;;;;;;;23.03;47.40;101757.81;5015050;28;20716;-51
2022/06/11 03:30:38;;;;;;;3.72;2.88;;;;;;;23.02;48.09;101756.03;4994607;28;20405;-56
2022/06/11 03:33:07;;;;;;;4.25;2.97;;;;;;;23.03;47.76;101757.81;5011132;28;20424;-54
2022/06/11 03:35:35;;;;;;;3.33;2.78;;;;;;;23.01;47.95;101754.28;5032297;28;20377;-51
2022/06/11 03:38:02;;;;;;;3.95;2.70;;;;;;;23.01;48.06;101754.28;4998243;28;20473;-49
2022/06/11 03:40:28;;;;;;;4.07;2.80;;;;;;;23.00;47.85;101751.63;4998281;28;20381;-54
2022/06/11 03:42:58;;;;;;;3.50;2.92;;;;;;;23.00;47.69;101755.13;4998269;28;20867;-51
2022/06/11 03:45:28;;;;;;;5.28;3.20;;;;;;;23.02;48.14;101761.31;4998581;28;20384;-52
2022/06/11 03:47:55;;;;;;;4.38;2.80;;;;;;;23.03;48.24;101757.81;4998077;28;20443;-51
2022/06/11 03:50:29;;;;;;;4.18;3.15;;;;;;;23.02;48.20;101750.78;4998141;28;20401;-59
2022/06/11 03:52:58;;;;;;;4.75;2.70;;;;;;;23.04;48.23;101753.41;4998391;28;20389;-56
2022/06/11 03:55:27;;;;;;;3.72;2.70;;;;;;;23.03;48.45;101747.31;4997115;28;20393;-49
2022/06/11 03:58:00;;;;;;;3.45;2.65;;;;;;;23.04;48.86;101749.06;4996270;28;20478;-52
2022/06/11 04:03:18;;;;;;;5.32;2.97;;;;;;;23.05;49.11;101750.84;5020116;28;20384;-49
2022/06/11 04:05:48;;;;;;;4.80;3.40;;;;;;;23.02;48.83;101750.78;4998388;28;20379;-51
2022/06/11 04:08:17;;;;;;;4.53;2.92;;;;;;;23.04;49.30;101759.56;5005758;28;20870;-49
2022/06/11 04:10:51;;;;;;;4.57;3.08;;;;;;;23.08;49.27;101754.38;4998131;28;20407;-54
2022/06/11 04:13:22;;;;;;;5.20;3.08;;;;;;;23.08;49.19;101757.88;4996299;28;20397;-51
2022/06/11 04:15:52;;;;;;;5.45;3.35;;;;;;;23.08;48.91;101759.63;5007025;28;20374;-53
2022/06/11 04:18:38;;;;;;;4.40;3.08;;;;;;;23.09;48.65;101750.88;4998129;28;20389;-55
2022/06/11 04:21:15;;;;;;;8.80;3.80;;;;;;;23.12;49.56;101769.31;4997316;28;20389;-46
2022/06/11 04:23:47;;;;;;;6.00;3.28;;;;;;;23.13;49.81;101774.56;4997419;28;20445;-54
2022/06/11 04:26:19;;;;;;;6.88;4.38;;;;;;;22.85;50.91;101773.28;5013075;28;20386;-49
2022/06/11 04:28:48;;;;;;;6.28;4.03;;;;;;;22.66;51.02;101775.56;4996837;28;20476;-49
2022/06/11 04:31:17;;;;;;;6.88;4.20;;;;;;;22.46;52.41;101775.25;4996834;28;20801;-49
2022/06/11 04:33:54;;;;;;;9.00;4.00;;;;;;;22.38;52.02;101777.69;4997003;28;20396;-49
2022/06/11 04:36:29;;;;;;;6.65;4.20;;;;;;;22.37;52.38;101770.66;4997568;28;20389;-53
2022/06/11 04:38:56;;;;;;;8.23;4.22;;;;;;;22.39;52.80;101774.22;5012900;28;20448;-50
2022/06/11 04:41:28;;;;;;;8.60;3.78;;;;;;;22.51;51.64;101772.69;4997295;28;20401;-49
2022/06/11 04:43:56;;;;;;;8.10;3.90;;;;;;;22.62;51.34;101768.50;4996930;28;20397;-53
2022/06/11 04:46:22;;;;;;;5.53;3.37;;;;;;;22.71;50.51;101765.16;5013466;28;20420;-49
2022/06/11 04:48:49;;;;;;;5.93;3.50;;;;;;;22.79;51.17;101767.91;5012414;28;20425;-50
2022/06/11 04:51:19;;;;;;;6.70;3.00;;;;;;;22.83;50.68;101765.38;4996299;28;20480;-51
2022/06/11 04:53:45;;;;;;;6.20;3.50;;;;;;;22.88;50.44;101773.34;4996403;28;20391;-46
2022/06/11 04:56:18;;;;;;;5.73;3.57;;;;;;;22.91;50.96;101773.38;4995736;28;20481;-52
2022/06/11 04:58:44;;;;;;;7.95;3.08;;;;;;;22.91;50.08;101765.50;4995745;28;20878;-52
2022/06/11 05:01:11;;;;;;;5.57;2.73;;;;;;;22.95;49.91;101764.69;5012341;28;20392;-57
2022/06/11 05:03:39;;;;;;;5.20;3.25;;;;;;;22.95;50.16;101774.31;4997322;28;20400;-58
2022/06/11 05:06:07;;;;;;;7.78;2.95;;;;;;;22.97;50.68;101772.59;4997263;28;20397;-58
2022/06/11 05:08:34;;;;;;;4.37;2.90;;;;;;;22.97;50.22;101778.75;5013675;28;20438;-59
2022/06/11 05:11:00;;;;;;;4.70;2.80;;;;;;;22.91;49.81;101757.63;5013746;28;20404;-59
2022/06/11 05:13:25;;;;;;;4.60;2.90;;;;;;;22.98;50.20;101775.25;5013474;28;20381;-58
2022/06/11 05:15:54;;;;;;;5.00;2.85;;;;;;;22.99;50.19;101771.75;4998564;28;20476;-58
2022/06/11 05:18:19;;;;;;;5.40;3.00;;;;;;;22.99;50.28;101771.75;5017524;28;20416;-58
2022/06/11 05:20:45;;;;;;;5.80;2.90;;;;;;;23.02;50.54;101782.31;5017271;28;20373;-58
2022/06/11 05:23:11;;;;;;;5.10;2.70;;;;;;;23.00;49.92;101773.53;5016957;28;20438;-59
2022/06/11 05:25:40;;;;;;;4.47;2.70;;;;;;;23.00;50.64;101773.53;5063182;22;20425;-65
2022/06/11 05:28:18;;;;;;;3.92;2.75;;;;;;;22.96;49.96;101771.72;4988397;28;20478;-64
2022/06/11 05:30:44;;;;;;;4.03;2.60;;;;;;;23.03;49.96;101784.09;4991560;28;20735;-65
2022/06/11 05:33:12;;;;;;;6.85;2.72;;;;;;;23.05;50.68;101787.63;4976644;28;20379;-65
2022/06/11 05:35:39;;;;;;;5.40;2.60;;;;;;;23.04;50.15;101785.84;4997859;28;20387;-67
2022/06/11 05:38:11;;;;;;;5.38;2.97;;;;;;;23.05;50.48;101786.72;4981060;28;20926;-65
2022/06/11 05:40:46;;;;;;;3.55;2.55;;;;;;;23.05;50.44;101791.97;4981150;28;20422;-66
2022/06/11 05:43:12;;;;;;;5.07;2.90;;;;;;;23.04;50.06;101791.09;4981010;28;20485;-66
2022/06/11 05:45:43;;;;;;;4.95;2.83;;;;;;;23.02;49.81;101795.44;5014560;28;20470;-66
2022/06/11 05:48:12;;;;;;;5.47;3.30;;;;;;;23.04;50.63;101796.34;4980938;28;20394;-67
2022/06/11 05:50:42;;;;;;;4.30;2.87;;;;;;;23.04;50.54;101796.34;4980733;28;20803;-66
2022/06/11 05:53:08;;;;;;;7.60;2.60;;;;;;;23.07;50.67;101794.63;4980671;28;20394;-66
2022/06/11 05:55:40;;;;;;;5.20;2.90;;;;;;;23.05;50.50;101790.25;4997227;28;20375;-65
2022/06/11 05:58:10;;;;;;;4.55;2.88;;;;;;;23.02;50.81;101787.56;4980579;28;20375;-67
2022/06/11 06:00:37;;;;;;;5.53;2.97;;;;;;;23.08;50.83;101785.91;4996928;28;20395;-65
2022/06/11 06:03:02;;;;;;;3.63;2.55;;;;;;;23.05;50.65;101782.38;4980545;28;20383;-66
2022/06/11 06:05:31;;;;;;;5.20;2.70;;;;;;;23.08;50.84;101791.16;4996923;28;20382;-66
2022/06/11 06:07:57;;;;;;;3.83;2.60;;;;;;;23.09;50.84;101782.41;4980246;28;20413;-65
2022/06/11 06:10:23;;;;;;;4.73;3.00;;;;;;;23.09;51.14;101785.91;4996739;28;20867;-65
2022/06/11 06:12:48;;;;;;;6.00;2.67;;;;;;;23.05;50.55;101782.38;4996750;28;20441;-65
2022/06/11 06:15:23;;;;;;;4.07;2.60;;;;;;;23.08;50.35;101785.91;4996423;28;20398;-65
2022/06/11 06:17:52;;;;;;;4.40;2.70;;;;;;;23.07;51.05;101790.25;4980325;28;20420;-65
2022/06/11 06:20:22;;;;;;;4.40;2.60;;;;;;;23.08;50.96;101793.78;4980629;28;20870;-65
2022/06/11 06:22:48;;;;;;;3.65;2.67;;;;;;;23.05;50.06;101782.38;4980604;28;20389;-65
2022/06/11 06:25:16;;;;;;;5.90;2.87;;;;;;;22.96;50.27;101771.72;4996351;28;20379;-65
2022/06/11 06:27:42;;;;;;;4.53;2.67;;;;;;;23.09;50.56;101803.44;4995231;28;20371;-65
2022/06/11 06:30:08;;;;;;;5.17;2.73;;;;;;;23.07;50.54;101792.88;4996214;28;20395;-65
2022/06/11 06:32:33;;;;;;;4.25;2.55;;;;;;;23.09;50.95;101806.06;4996118;28;20379;-65
2022/06/11 06:34:58;;;;;;;4.43;2.67;;;;;;;23.07;51.07;101794.63;4996011;28;20399;-65
2022/06/11 06:37:24;;;;;;;5.23;3.40;;;;;;;23.10;50.81;101805.19;5013601;28;20383;-65
2022/06/11 06:39:50;;;;;;;4.80;2.57;;;;;;;23.09;50.81;101803.44;4995836;28;20395;-65
2022/06/11 06:42:16;;;;;;;5.10;2.78;;;;;;;23.10;51.25;101813.09;4979499;28;20473;-65
2022/06/11 06:44:42;;;;;;;4.45;2.53;;;;;;;23.09;51.07;101808.69;4996175;28;20434;-65
2022/06/11 06:47:07;;;;;;;4.27;2.77;;;;;;;23.10;51.49;101815.72;4995991;28;20379;-65
2022/06/11 06:49:32;;;;;;;5.97;3.20;;;;;;;23.09;51.12;101806.06;4995694;28;20418;-65
2022/06/11 06:52:01;;;;;;;5.05;3.08;;;;;;;23.11;50.84;101815.72;4995652;28;20402;-65
2022/06/11 06:54:26;;;;;;;3.60;2.60;;;;;;;23.09;50.46;101819.19;4995647;28;20849;-65
2022/06/11 06:56:52;;;;;;;3.83;2.40;;;;;;;23.09;50.65;101813.94;5013267;28;20377;-65
2022/06/11 06:59:17;;;;;;;4.97;2.63;;;;;;;23.10;50.84;101813.09;4995836;28;20387;-65
2022/06/11 07:01:45;;;;;;;4.77;2.50;;;;;;;23.10;51.26;101811.31;4995890;28;20397;-65
2022/06/11 07:04:12;;;;;;;5.13;2.63;;;;;;;23.07;50.73;101805.16;4996185;28;20383;-65
2022/06/11 07:06:38;;;;;;;4.88;2.75;;;;;;;23.10;51.06;101805.19;4979041;28;20387;-65
2022/06/11 07:09:04;;;;;;;4.70;2.88;;;;;;;23.11;50.75;101806.97;4979452;28;20406;-65
2022/06/11 07:11:31;;;;;;;4.50;2.70;;;;;;;23.12;51.04;101811.34;4995102;28;20411;-65
2022/06/11 07:13:57;;;;;;;4.50;2.63;;;;;;;23.10;50.76;101810.44;4995475;28;20840;-65
2022/06/11 07:16:27;;;;;;;5.03;2.70;;;;;;;23.08;50.32;101817.44;4979344;28;20394;-66
2022/06/11 07:18:59;;;;;;;6.33;2.90;;;;;;;23.11;50.47;101817.47;4978888;28;20425;-65
2022/06/11 07:21:29;;;;;;;4.60;2.70;;;;;;;23.10;50.77;101810.44;4995772;28;20378;-65
2022/06/11 07:23:58;;;;;;;4.20;3.00;;;;;;;23.10;50.74;101815.72;4979215;28;20455;-65
2022/06/11 07:26:31;;;;;;;3.92;2.70;;;;;;;23.10;50.90;101818.34;4995092;28;20386;-64
2022/06/11 07:29:03;;;;;;;5.10;2.92;;;;;;;23.10;50.38;101815.72;4979168;28;20383;-65
2022/06/11 07:31:30;;;;;;;3.67;2.63;;;;;;;23.12;50.64;101819.25;4979023;28;20399;-65
2022/06/11 07:33:56;;;;;;;4.50;2.67;;;;;;;23.09;51.07;101813.94;4978893;28;20482;-65
2022/06/11 07:36:22;;;;;;;4.40;2.70;;;;;;;23.11;50.72;101822.72;4979026;28;20863;-65
2022/06/11 07:38:47;;;;;;;4.90;3.08;;;;;;;23.12;50.94;101821.88;4994746;28;20445;-64
2022/06/11 07:41:17;;;;;;;4.40;2.80;;;;;;;23.13;50.86;101815.75;4994895;28;20387;-65
2022/06/11 07:43:43;;;;;;;3.67;2.60;;;;;;;23.10;51.37;101815.72;5012421;28;20791;-65
2022/06/11 07:46:08;;;;;;;3.80;2.78;;;;;;;23.11;51.08;101820.09;4978586;28;20437;-65
2022/06/11 07:48:34;;;;;;;3.77;2.50;;;;;;;23.10;50.64;101815.72;4978891;28;20414;-65
2022/06/11 07:50:59;;;;;;;5.23;2.70;;;;;;;23.12;50.94;101808.72;4978439;28;20399;-65
2022/06/11 07:53:25;;;;;;;4.33;2.50;;;;;;;23.00;50.50;101789.28;4994571;28;20384;-65
2022/06/11 07:55:54;;;;;;;4.20;2.60;;;;;;;23.12;51.25;101814.00;4978128;28;20399;-65
2022/06/11 07:58:23;;;;;;;4.07;2.55;;;;;;;23.12;50.36;101811.34;4978615;28;20380;-65
2022/06/11 08:00:51;;;;;;;3.42;2.67;;;;;;;23.12;50.87;101819.25;4994523;28;20531;-65
2022/06/11 08:03:18;;;;;;;4.32;2.83;;;;;;;23.13;50.49;101824.50;4978477;28;20379;-65
2022/06/11 08:05:44;;;;;;;3.17;2.30;;;;;;;23.12;50.71;101820.09;4994963;28;20375;-65
2022/06/11 08:08:10;;;;;;;4.18;2.55;;;;;;;23.13;50.60;101815.75;4978354;28;20398;-65
2022/06/11 08:10:37;;;;;;;4.40;2.77;;;;;;;23.07;50.52;101807.78;4994305;28;20470;-65
2022/06/11 08:13:11;;;;;;;4.55;2.70;;;;;;;23.13;50.45;101821.00;4978255;28;20371;-65
2022/06/11 08:15:37;;;;;;;4.10;2.90;;;;;;;23.14;50.88;101822.78;4994921;28;20410;-65
2022/06/11 08:18:03;;;;;;;3.30;2.53;;;;;;;23.11;50.90;101822.72;4994615;28;20893;-65
2022/06/11 08:20:30;;;;;;;3.47;2.30;;;;;;;23.12;50.75;101824.50;4994520;28;20418;-65
2022/06/11 08:22:56;;;;;;;4.03;2.70;;;;;;;23.14;50.94;101825.41;4978441;28;20387;-65
2022/06/11 08:25:22;;;;;;;3.40;2.50;;;;;;;23.07;50.48;101816.53;4993934;28;20394;-65
2022/06/11 08:27:48;;;;;;;4.43;2.67;;;;;;;23.13;50.88;101821.88;4994384;28;20414;-65
2022/06/11 08:30:17;;;;;;;5.28;2.75;;;;;;;23.14;50.68;101817.53;4977953;28;20921;-65
2022/06/11 08:32:42;;;;;;;3.30;2.55;;;;;;;23.13;50.12;101810.50;4977903;28;20390;-65
2022/06/11 08:35:09;;;;;;;3.63;2.70;;;;;;;23.13;50.27;101818.38;4994208;28;20367;-65
2022/06/11 08:37:36;;;;;;;4.25;2.70;;;;;;;23.14;50.57;101812.25;4977763;28;20375;-65
2022/06/11 08:40:03;;;;;;;4.13;2.88;;;;;;;23.11;50.27;101806.97;4978110;28;20441;-65
2022/06/11 08:42:37;;;;;;;3.85;2.80;;;;;;;23.12;50.30;101808.72;4977925;28;20860;-65
2022/06/11 08:45:24;;;;;;;4.28;2.70;;;;;;;23.15;50.17;101808.78;4994076;28;20518;-65
2022/06/11 08:47:52;;;;;;;3.78;2.58;;;;;;;23.16;50.67;101800.03;4977942;28;20446;-65
2022/06/11 08:50:25;;;;;;;3.97;2.85;;;;;;;23.15;50.30;101803.53;4978722;28;20391;-65
2022/06/11 08:52:51;;;;;;;3.28;2.50;;;;;;;23.16;50.77;101810.53;4982028;28;20398;-65
2022/06/11 08:55:18;;;;;;;4.07;2.80;;;;;;;23.15;50.15;101808.78;4981868;28;20415;-65
2022/06/11 08:58:31;;;;;;;3.75;2.90;;;;;;;23.17;49.93;101801.81;4982062;28;20402;-65
2022/06/11 09:00:56;;;;;;;4.90;2.83;;;;;;;23.07;50.29;101784.13;4935299;29;20954;-65
2022/06/11 09:03:44;;;;;;;3.50;2.73;;;;;;;23.16;50.03;101805.28;4935457;29;20421;-65
2022/06/11 09:06:31;;;;;;;4.68;2.90;;;;;;;23.16;50.05;101802.66;4955830;28;20414;-65
2022/06/11 09:09:02;;;;;;;5.20;3.10;;;;;;;23.16;50.03;101821.06;5015711;28;20374;-65
2022/06/11 09:11:43;;;;;;;3.65;2.90;;;;;;;23.15;50.05;101819.28;4997369;28;20395;-65
2022/06/11 09:14:24;;;;;;;3.40;2.63;;;;;;;23.15;49.81;101814.03;4997822;28;20445;-65
2022/06/11 09:16:59;;;;;;;3.43;2.70;;;;;;;23.17;50.11;101817.56;4981738;28;20418;-65
2022/06/11 09:19:40;;;;;;;3.72;2.70;;;;;;;23.16;50.28;101821.06;4981252;28;20390;-65
2022/06/11 09:22:35;;;;;;;3.67;2.80;;;;;;;23.17;50.04;101817.56;5015408;28;20426;-65
2022/06/11 09:25:07;;;;;;;4.35;2.80;;;;;;;23.18;49.85;101819.34;4997289;28;20379;-65
2022/06/11 09:27:46;;;;;;;4.17;2.70;;;;;;;23.16;50.15;101815.81;4981397;28;20493;-65
2022/06/11 09:30:24;;;;;;;3.25;2.63;;;;;;;23.17;50.29;101817.56;4997876;28;20375;-65
2022/06/11 09:33:03;;;;;;;3.42;2.80;;;;;;;23.17;50.27;101822.81;5015221;28;20448;-65
2022/06/11 09:35:38;;;;;;;3.10;2.63;;;;;;;23.16;49.73;101821.94;4981075;28;20383;-65
2022/06/11 09:38:19;;;;;;;3.37;2.50;;;;;;;23.17;49.92;101822.81;4981377;28;20387;-65
2022/06/11 09:40:49;;;;;;;3.67;2.72;;;;;;;23.19;50.14;101826.34;5014872;28;20514;-65
2022/06/11 09:43:46;;;;;;;3.75;2.70;;;;;;;23.17;50.08;101822.81;4998169;28;20410;-65
2022/06/11 09:46:34;;;;;;;4.35;2.72;;;;;;;23.17;49.77;101828.09;4997234;28;20429;-65
2022/06/11 09:49:10;;;;;;;4.00;2.60;;;;;;;23.17;49.66;101830.72;4980960;28;20853;-65
2022/06/11 09:51:43;;;;;;;5.03;2.90;;;;;;;23.17;49.65;101833.34;4980827;28;20434;-65
2022/06/11 09:54:30;;;;;;;3.70;2.60;;;;;;;23.12;49.82;101829.75;4997094;28;20410;-65
2022/06/11 09:57:20;;;;;;;4.47;2.90;;;;;;;23.19;49.83;101842.13;5014553;28;20363;-65
2022/06/11 09:59:48;;;;;;;3.33;2.70;;;;;;;23.19;49.73;101831.63;4996994;28;20394;-65
2022/06/11 10:05:36;;;;;;;3.40;2.65;;;;;;;23.22;49.83;101852.69;4927040;28;20497;-65
2022/06/11 10:08:14;;;;;;;3.45;2.80;;;;;;;23.22;50.11;101836.91;4980679;28;20387;-65
2022/06/11 10:10:41;;;;;;;3.67;2.60;;;;;;;23.23;49.61;101846.56;4996452;28;20868;-65
2022/06/11 10:13:24;;;;;;;3.92;2.95;;;;;;;23.23;49.05;101843.94;4996926;28;20398;-64
2022/06/11 10:15:54;;;;;;;4.22;2.53;;;;;;;23.23;49.28;101864.06;4980591;28;20383;-65
2022/06/11 10:18:45;;;;;;;3.50;2.60;;;;;;;23.24;49.56;101861.50;4980355;28;20379;-65
2022/06/11 10:21:13;;;;;;;3.90;2.70;;;;;;;23.23;49.21;101857.09;4992313;28;20395;-65
2022/06/11 10:23:45;;;;;;;3.58;2.50;;;;;;;23.24;49.24;101860.63;4980289;28;20394;-66
2022/06/11 10:26:16;;;;;;;3.03;2.50;;;;;;;23.23;48.93;101859.72;4980221;28;20756;-65
2022/06/11 10:28:50;;;;;;;4.25;2.83;;;;;;;23.25;49.11;101858.03;5013867;28;20379;-65
2022/06/11 10:31:25;;;;;;;4.20;2.93;;;;;;;23.25;49.49;101863.28;5013891;28;20402;-65
2022/06/11 10:33:55;;;;;;;3.72;2.70;;;;;;;23.26;48.97;101857.16;4980149;28;20371;-65
2022/06/11 10:36:24;;;;;;;3.88;2.78;;;;;;;23.23;48.64;101864.06;4980066;28;20399;-65
2022/06/11 10:39:04;;;;;;;3.60;2.70;;;;;;;23.24;48.25;101861.50;4995847;28;20894;-65
2022/06/11 10:41:35;;;;;;;2.95;2.50;;;;;;;23.23;48.70;101854.47;5014152;28;20375;-65
2022/06/11 10:44:33;;;;;;;3.20;2.50;;;;;;;23.26;49.00;101867.69;4979952;28;20860;-65
2022/06/11 10:46:59;;;;;;;3.80;2.85;;;;;;;23.27;49.13;101866.81;4996203;28;20374;-65
2022/06/11 10:49:24;;;;;;;4.47;2.67;;;;;;;23.08;48.05;101843.69;4995905;28;20513;-65
2022/06/11 10:52:11;;;;;;;3.60;2.70;;;;;;;23.27;48.38;101877.34;4995867;28;20410;-65
2022/06/11 10:54:37;;;;;;;4.32;2.63;;;;;;;23.27;48.02;101872.06;4996132;28;20367;-65
2022/06/11 10:57:11;;;;;;;4.03;2.50;;;;;;;23.26;48.20;101870.31;4995669;28;20390;-65
2022/06/11 10:59:41;;;;;;;3.58;2.50;;;;;;;23.29;48.79;101875.63;4996030;28;20853;-65
2022/06/11 11:02:29;;;;;;;3.40;2.50;;;;;;;23.29;48.11;101869.44;4979641;28;20751;-65
2022/06/11 11:04:58;;;;;;;3.30;2.50;;;;;;;23.31;48.72;101880.88;4979524;28;20449;-65
2022/06/11 11:07:40;;;;;;;3.90;2.50;;;;;;;23.31;48.15;101879.16;5013067;28;20382;-65
2022/06/11 11:10:18;;;;;;;2.97;2.33;;;;;;;23.32;48.26;101891.44;4979449;28;20383;-65
2022/06/11 11:12:46;;;;;;;3.15;2.40;;;;;;;23.31;47.98;101879.16;4978924;28;20457;-65
2022/06/11 11:15:27;;;;;;;4.10;2.45;;;;;;;23.32;47.83;101885.28;4979165;28;20441;-65
2022/06/11 11:17:59;;;;;;;3.95;2.55;;;;;;;23.32;48.26;101880.91;4979367;28;20407;-65
2022/06/11 11:20:39;;;;;;;3.83;2.40;;;;;;;23.32;48.55;101880.00;4979073;28;20431;-65
2022/06/11 11:23:10;;;;;;;3.90;2.70;;;;;;;23.32;48.10;101885.28;4979373;28;20383;-65
2022/06/11 11:25:59;;;;;;;3.55;2.42;;;;;;;23.33;47.72;101877.44;5012600;28;20740;-65
2022/06/11 11:28:28;;;;;;;4.18;2.90;;;;;;;23.27;48.31;101882.59;4979374;28;20430;-65
2022/06/11 11:31:00;;;;;;;3.83;2.50;;;;;;;23.30;48.27;101887.91;4978861;28;20469;-65
2022/06/11 11:33:29;;;;;;;3.78;2.63;;;;;;;23.32;47.97;101891.44;4995183;28;20411;-65
2022/06/11 11:36:03;;;;;;;3.80;2.30;;;;;;;23.32;48.03;101880.91;4978959;28;20879;-65
2022/06/11 11:38:28;;;;;;;3.47;2.47;;;;;;;23.33;48.33;101887.94;4995105;28;20453;-65
2022/06/11 11:40:59;;;;;;;3.53;2.57;;;;;;;23.36;48.13;101891.47;4994894;28;20783;-65
2022/06/11 11:43:32;;;;;;;4.30;2.47;;;;;;;23.35;47.75;101895.88;4978726;28;20449;-65
2022/06/11 11:45:57;;;;;;;4.15;2.40;;;;;;;23.35;47.28;101895.88;4978816;28;20383;-65
2022/06/11 11:48:33;;;;;;;3.93;2.60;;;;;;;23.36;47.70;101896.72;4994927;28;20417;-65
2022/06/11 11:51:23;;;;;;;3.90;2.30;;;;;;;23.37;47.50;101898.50;4994628;28;20395;-65
2022/06/11 11:53:54;;;;;;;4.10;2.33;;;;;;;23.34;47.70;101897.59;5012466;28;20367;-65
2022/06/11 11:56:28;;;;;;;5.20;2.50;;;;;;;23.34;47.97;101896.72;4978621;28;20386;-65